Time,TemperatureF,DewpointF,PressureIn,WindDirection,WindDirectionDegrees,WindSpeedMPH,WindSpeedGustMPH,Humidity,HourlyPrecipIn,Conditions,Clouds,dailyrainin,SoftwareType,DateUTC
2013-08-25 00:02:00,-999.0,-99.9,30.22,NE,38,1.0,7.0,-999,-99.99,,,-99.99,,2013-08-25 04:02:00,
2013-08-25 00:25:00,70.0,62.0,30.22,North,0,0.0,7.0,77,0.00,,,0.02,,2013-08-25 04:25:00,
2013-08-25 00:54:00,69.0,62.0,30.22,NNE,28,1.0,5.0,78,0.00,,,0.02,,2013-08-25 04:54:00,
2013-08-25 01:23:00,68.0,61.0,30.23,NE,46,1.0,4.0,79,0.00,,,0.02,,2013-08-25 05:23:00,
2013-08-25 01:34:00,68.0,61.0,30.23,NE,46,1.0,4.0,79,0.00,,,0.02,,2013-08-25 05:34:00,
2013-08-25 01:52:00,68.0,61.0,30.23,NE,46,1.0,4.0,79,0.00,,,0.02,,2013-08-25 05:52:00,
2013-08-25 02:22:00,67.0,61.0,30.22,NNE,31,1.0,7.0,81,0.00,,,0.00,,2013-08-25 06:22:00,
2013-08-25 02:32:00,67.0,61.0,30.22,NNE,31,1.0,7.0,81,0.00,,,0.00,,2013-08-25 06:32:00,
2013-08-25 02:52:00,67.0,61.0,30.22,NNE,31,1.0,7.0,81,0.00,,,0.00,,2013-08-25 06:52:00,
2013-08-25 03:22:00,66.0,60.0,30.22,North,0,0.0,2.0,82,0.00,,,0.00,,2013-08-25 07:22:00,
2013-08-25 03:32:00,66.0,60.0,30.22,North,0,0.0,2.0,82,0.00,,,0.00,,2013-08-25 07:32:00,
2013-08-25 03:52:00,66.0,61.0,30.22,North,0,0.0,4.0,83,0.00,,,0.00,,2013-08-25 07:52:00,
2013-08-25 04:52:00,65.0,60.0,30.22,NNE,28,1.0,5.0,84,0.00,,,0.00,,2013-08-25 08:52:00,
2013-08-25 05:02:00,65.0,60.0,30.22,NNE,28,1.0,5.0,84,0.00,,,0.00,,2013-08-25 09:02:00,
2013-08-25 05:22:00,65.0,60.0,30.22,North,0,0.0,1.0,84,0.00,,,0.00,,2013-08-25 09:22:00,
2013-08-25 06:53:00,64.0,59.0,30.23,NNE,29,1.0,5.0,84,0.00,,,0.00,,2013-08-25 10:53:00,
2013-08-25 07:12:00,64.0,59.0,30.24,NNE,27,1.0,6.0,84,0.00,,,0.00,,2013-08-25 11:12:00,
2013-08-25 08:22:00,66.0,61.0,30.26,NE,45,1.0,8.0,83,0.00,,,0.00,,2013-08-25 12:22:00,
2013-08-25 08:52:00,68.0,61.0,30.27,NNE,30,1.0,7.0,78,0.00,,,0.00,,2013-08-25 12:52:00,
2013-08-25 09:22:00,70.0,61.0,30.28,NNE,32,4.0,8.0,73,0.00,,,0.00,,2013-08-25 13:22:00,
2013-08-25 09:52:00,72.0,62.0,30.29,NE,50,5.0,13.0,70,0.00,,,0.00,,2013-08-25 13:52:00,
2013-08-25 10:26:00,74.0,63.0,30.30,NE,41,5.0,11.0,68,0.00,,,0.00,,2013-08-25 14:26:00,
2013-08-25 10:52:00,76.0,62.0,30.30,East,80,5.0,14.0,63,0.00,,,0.00,,2013-08-25 14:52:00,
2013-08-25 11:01:00,76.0,62.0,30.30,East,80,5.0,14.0,63,0.00,,,0.00,,2013-08-25 15:01:00,
2013-08-25 11:23:00,77.0,62.0,30.30,NE,49,5.0,14.0,59,0.00,,,0.00,,2013-08-25 15:23:00,
2013-08-25 11:55:00,78.0,62.0,30.29,ENE,74,2.0,7.0,59,0.00,,,0.00,,2013-08-25 15:55:00,
2013-08-25 12:24:00,79.0,62.0,30.29,NNE,26,5.0,18.0,56,0.00,,,0.00,,2013-08-25 16:24:00,
2013-08-25 12:53:00,80.0,63.0,30.27,NNE,29,4.0,8.0,57,0.00,,,0.00,,2013-08-25 16:53:00,
2013-08-25 13:23:00,81.0,63.0,30.27,East,83,4.0,11.0,55,0.00,,,0.00,,2013-08-25 17:23:00,
2013-08-25 13:53:00,81.0,64.0,30.27,North,6,4.0,11.0,56,0.00,,,0.00,,2013-08-25 17:53:00,
2013-08-25 14:22:00,81.0,63.0,30.25,East,87,2.0,11.0,55,0.00,,,0.00,,2013-08-25 18:22:00,
2013-08-25 14:52:00,81.0,62.0,30.26,ENE,65,2.0,7.0,52,0.00,,,0.00,,2013-08-25 18:52:00,
2013-08-25 15:22:00,82.0,64.0,30.24,ENE,61,2.0,6.0,55,0.00,,,0.00,,2013-08-25 19:22:00,
2013-08-25 15:53:00,82.0,64.0,30.24,ENE,61,4.0,7.0,54,0.00,,,0.00,,2013-08-25 19:53:00,
2013-08-25 16:12:00,81.0,62.0,30.24,East,80,4.0,11.0,52,0.00,,,0.00,,2013-08-25 20:12:00,
2013-08-25 16:23:00,81.0,62.0,30.24,East,80,4.0,11.0,52,0.00,,,0.00,,2013-08-25 20:23:00,
2013-08-25 16:33:00,81.0,62.0,30.24,East,80,4.0,11.0,52,0.00,,,0.00,,2013-08-25 20:33:00,
2013-08-25 16:53:00,81.0,63.0,30.23,East,92,1.0,11.0,55,0.00,,,0.00,,2013-08-25 20:53:00,
2013-08-25 17:22:00,81.0,64.0,30.22,NE,54,2.0,7.0,56,0.00,,,0.00,,2013-08-25 21:22:00,
2013-08-25 17:55:00,81.0,63.0,30.22,ENE,70,4.0,6.0,55,0.00,,,0.00,,2013-08-25 21:55:00,
2013-08-25 18:03:00,81.0,63.0,30.22,ENE,70,4.0,6.0,55,0.00,,,0.00,,2013-08-25 22:03:00,
2013-08-25 18:24:00,80.0,64.0,30.23,East,101,1.0,6.0,59,0.00,,,0.00,,2013-08-25 22:24:00,
2013-08-25 18:53:00,79.0,64.0,30.23,East,95,1.0,6.0,61,0.00,,,0.00,,2013-08-25 22:53:00,
2013-08-25 19:12:00,78.0,64.0,30.23,North,0,0.0,0.0,62,0.00,,,0.00,,2013-08-25 23:12:00,
2013-08-25 19:23:00,78.0,64.0,30.23,North,0,0.0,1.0,63,0.00,,,0.00,,2013-08-25 23:23:00,
2013-08-25 19:53:00,77.0,65.0,30.23,North,0,0.0,0.0,66,0.00,,,0.00,,2013-08-25 23:53:00,
2013-08-25 20:02:00,77.0,65.0,30.23,North,0,0.0,0.0,66,0.00,,,0.00,,2013-08-26 00:02:00,
2013-08-25 20:22:00,76.0,63.0,30.23,North,0,0.0,2.0,65,0.00,,,0.00,,2013-08-26 00:22:00,
2013-08-25 20:52:00,75.0,63.0,30.24,North,0,0.0,6.0,66,0.00,,,0.00,,2013-08-26 00:52:00,
2013-08-25 21:11:00,74.0,62.0,30.24,North,0,0.0,0.0,67,0.00,,,0.00,,2013-08-26 01:11:00,
2013-08-25 21:22:00,74.0,63.0,30.24,North,0,0.0,4.0,69,0.00,,,0.00,,2013-08-26 01:22:00,
2013-08-25 21:42:00,74.0,64.0,30.24,North,0,0.0,1.0,70,0.00,,,0.00,,2013-08-26 01:42:00,
2013-08-25 21:52:00,73.0,63.0,30.24,North,0,0.0,5.0,72,0.00,,,0.00,,2013-08-26 01:52:00,
2013-08-25 22:22:00,72.0,63.0,30.25,North,0,0.0,0.0,73,0.00,,,0.00,,2013-08-26 02:22:00,
2013-08-25 22:32:00,72.0,63.0,30.25,North,0,0.0,0.0,73,0.00,,,0.00,,2013-08-26 02:32:00,
2013-08-25 22:42:00,72.0,63.0,30.25,North,0,0.0,0.0,73,0.00,,,0.00,,2013-08-26 02:42:00,
2013-08-25 22:52:00,72.0,63.0,30.25,North,0,0.0,0.0,73,0.00,,,0.00,,2013-08-26 02:52:00,
2013-08-25 23:22:00,70.0,62.0,30.26,North,0,0.0,4.0,76,0.00,,,0.00,,2013-08-26 03:22:00,
2013-08-25 23:56:00,69.0,62.0,30.26,North,0,0.0,2.0,78,0.00,,,0.00,,2013-08-26 03:56:00,